Time;durP1;ratioP1;P1;durP2;ratioP2;P2;SDS_P1;SDS_P2;PMS_P1;PMS_P2;Temp;Humidity;BMP_temperature;BMP_pressure;BME280_temperature;BME280_humidity;BME280_pressure;Samples;Min_cycle;Max_cycle;Signal;HPM_P1;HPM_P2
2022/04/14 00:00:46;;;;;;;1.73;1.48;;;;;;;15.87;65.80;101434.66;5235260;28;20733;-79
2022/04/14 00:03:23;;;;;;;1.83;1.58;;;;;;;15.94;63.78;101432.66;5235817;28;20037;-79
2022/04/14 00:05:53;;;;;;;;;;;;;;;15.92;64.81;101442.44;5236382;28;20489;-79
2022/04/14 00:08:24;;;;;;;3.42;3.08;;;;;;;15.72;65.63;101436.09;5250835;28;19931;-79
2022/04/14 00:10:54;;;;;;;1.83;1.73;;;;;;;15.92;63.87;101436.28;5213726;28;20345;-79
2022/04/14 00:13:25;;;;;;;1.65;1.52;;;;;;;15.98;64.02;101433.41;5214017;28;20115;-80
2022/04/14 00:15:56;;;;;;;2.33;2.13;;;;;;;16.05;64.12;101424.28;5235761;28;20124;-79
2022/04/14 00:18:26;;;;;;;4.28;2.92;;;;;;;15.85;64.98;101430.34;5240483;28;20028;-80
2022/04/14 00:20:57;;;;;;;2.53;2.33;;;;;;;16.05;63.32;101430.47;5215436;28;20087;-80
2022/04/14 00:23:30;;;;;;;2.63;2.42;;;;;;;15.99;64.18;101428.03;5229293;28;20413;-80
2022/04/14 00:26:00;;;;;;;;;;;;;;;16.07;63.14;101433.03;5235869;28;20090;-79
2022/04/14 00:28:31;;;;;;;2.92;2.58;;;;;;;15.86;63.68;101426.78;5240982;28;20226;-79
2022/04/14 00:31:04;;;;;;;4.55;3.10;;;;;;;15.66;66.21;101431.00;5229993;28;20056;-79
2022/04/14 00:33:34;;;;;;;2.25;1.98;;;;;;;15.78;64.50;101434.13;5240859;28;20028;-80
2022/04/14 00:36:05;;;;;;;1.85;1.75;;;;;;;15.93;64.51;101427.44;5244306;28;20043;-80
2022/04/14 00:38:35;;;;;;;2.20;1.98;;;;;;;15.55;66.35;101431.41;5243127;28;20017;-80
2022/04/14 00:41:06;;;;;;;2.92;2.38;;;;;;;15.69;65.36;101425.63;5233888;28;20120;-80
2022/04/14 00:43:38;;;;;;;1.90;1.80;;;;;;;15.64;65.43;101417.00;5241298;28;20032;-80
2022/04/14 00:46:09;;;;;;;6.60;2.13;;;;;;;15.58;66.20;101414.56;5237337;28;20079;-80
2022/04/14 00:48:39;;;;;;;2.92;2.65;;;;;;;15.46;67.14;101412.38;5244653;28;20189;-80
2022/04/14 00:51:12;;;;;;;2.47;2.28;;;;;;;15.64;64.94;101410.81;5240274;28;20182;-79
2022/04/14 00:53:46;;;;;;;2.42;2.17;;;;;;;15.35;67.91;101413.63;5255007;28;20119;-79
2022/04/14 00:56:16;;;;;;;;;;;;;;;15.55;65.21;101415.53;5221605;28;20064;-79
2022/04/14 00:58:47;;;;;;;1.52;1.33;;;;;;;15.72;64.28;101403.47;5238619;28;20024;-79
2022/04/14 01:01:17;;;;;;;1.45;1.35;;;;;;;15.81;64.32;101405.75;5235971;28;20032;-79
2022/04/14 01:03:50;;;;;;;2.85;2.60;;;;;;;15.79;64.13;101409.41;5239807;28;20093;-79
2022/04/14 01:06:23;;;;;;;3.15;2.53;;;;;;;15.87;63.79;101402.06;5238866;28;20243;-80
2022/04/14 01:11:45;;;;;;;2.00;1.90;;;;;;;15.93;62.99;101406.25;5253432;28;20695;-80
2022/04/14 01:14:25;;;;;;;6.40;3.33;;;;;;;15.83;64.45;101400.41;5242327;28;20040;-79
2022/04/14 01:17:01;;;;;;;2.45;2.25;;;;;;;15.92;63.14;101404.53;5215152;28;20756;-79
2022/04/14 01:19:32;;;;;;;1.80;1.70;;;;;;;15.81;64.60;101412.84;5220327;28;20080;-80
2022/04/14 01:22:44;;;;;;;3.47;2.47;;;;;;;15.83;62.92;101417.19;5234854;28;20060;-80
2022/04/14 01:25:15;;;;;;;2.92;2.60;;;;;;;15.63;64.52;101427.63;5245739;28;20264;-80
2022/04/14 01:27:45;;;;;;;3.90;2.60;;;;;;;15.73;63.92;101437.81;5239466;28;20033;-79
2022/04/14 01:30:20;;;;;;;5.32;3.50;;;;;;;15.93;64.24;101433.56;5236841;28;20047;-80
2022/04/14 01:32:53;;;;;;;4.68;3.20;;;;;;;15.85;63.80;101438.28;5233617;28;20032;-80
2022/04/14 01:35:24;;;;;;;6.03;2.95;;;;;;;15.82;63.62;101435.75;5251572;28;20037;-80
2022/04/14 01:38:00;;;;;;;8.60;2.97;;;;;;;15.79;63.47;101435.84;5241173;28;20079;-79
2022/04/14 01:40:31;;;;;;;3.53;2.28;;;;;;;15.83;63.40;101438.34;5247886;28;20431;-79
2022/04/14 01:43:01;;;;;;;3.65;3.35;;;;;;;15.78;63.57;101435.00;5238395;28;20047;-80
2022/04/14 01:45:32;;;;;;;7.15;3.17;;;;;;;15.80;63.10;101429.66;5205263;28;20532;-80
2022/04/14 01:48:05;;;;;;;2.97;2.60;;;;;;;15.84;62.93;101420.69;5205434;28;20036;-80
2022/04/14 01:50:38;;;;;;;4.68;3.10;;;;;;;15.78;63.14;101418.25;5239692;28;20492;-80
2022/04/14 01:53:09;;;;;;;2.45;2.25;;;;;;;15.78;62.97;101419.13;5213466;28;20048;-80
2022/04/14 01:55:39;;;;;;;14.02;3.75;;;;;;;15.78;63.18;101423.53;5233635;28;20040;-80
2022/04/14 01:58:10;;;;;;;2.35;2.15;;;;;;;15.76;63.03;101430.66;5235452;28;20028;-79
2022/04/14 02:00:42;;;;;;;5.50;1.85;;;;;;;15.80;62.94;101417.25;5236028;28;20131;-80
2022/04/14 02:03:13;;;;;;;4.43;2.60;;;;;;;15.84;63.03;101423.34;5233430;28;20040;-79
2022/04/14 02:05:44;;;;;;;2.08;1.95;;;;;;;15.80;62.56;101419.06;5217524;28;20040;-80
2022/04/14 02:08:14;;;;;;;2.47;2.17;;;;;;;15.76;63.14;101426.25;5236831;28;20020;-79
2022/04/14 02:10:45;;;;;;;2.22;2.00;;;;;;;15.72;62.79;101425.50;5248324;28;20203;-80
2022/04/14 02:13:19;;;;;;;5.15;3.55;;;;;;;15.70;63.07;101432.63;5220167;28;20263;-79
2022/04/14 02:15:52;;;;;;;2.83;2.50;;;;;;;15.71;62.67;101434.38;5235830;28;20101;-80
2022/04/14 02:18:22;;;;;;;2.53;2.28;;;;;;;15.70;63.12;101424.69;5235999;28;20115;-80
2022/04/14 02:20:53;;;;;;;2.00;1.90;;;;;;;15.75;63.42;101419.22;5237040;28;20044;-80
2022/04/14 02:23:23;;;;;;;5.72;2.63;;;;;;;15.76;63.03;101409.50;5202117;28;20024;-80
2022/04/14 02:25:53;;;;;;;4.07;2.17;;;;;;;15.72;62.75;101416.69;5251917;28;20040;-79
2022/04/14 02:28:24;;;;;;;2.78;2.47;;;;;;;15.69;62.91;101420.31;5217282;28;20043;-80
2022/04/14 02:30:54;;;;;;;2.42;2.22;;;;;;;15.73;63.37;101414.00;5235900;28;20747;-80
2022/04/14 02:33:25;;;;;;;5.25;3.85;;;;;;;15.69;63.04;101420.31;5204390;28;20033;-80
2022/04/14 02:35:55;;;;;;;3.42;3.13;;;;;;;15.69;63.32;101401.81;5237761;28;20533;-80
2022/04/14 02:38:26;;;;;;;3.33;2.22;;;;;;;15.65;62.88;101418.72;5233306;28;20032;-80
2022/04/14 02:40:56;;;;;;;2.80;2.58;;;;;;;15.65;62.96;101424.00;5228926;28;20028;-80
2022/04/14 02:43:27;;;;;;;1.30;1.27;;;;;;;15.57;64.80;101418.16;5220950;28;20036;-79
2022/04/14 02:46:00;;;;;;;2.78;2.38;;;;;;;15.55;65.01;101404.09;5211693;28;20131;-80
2022/04/14 02:48:31;;;;;;;2.65;2.45;;;;;;;15.35;67.59;101405.69;5238292;28;20505;-80
2022/04/14 02:51:02;;;;;;;4.93;2.97;;;;;;;15.46;64.87;101397.34;5236028;28;20624;-80
2022/04/14 02:53:32;;;;;;;1.77;1.60;;;;;;;15.51;64.43;101394.53;5221742;28;20040;-80
2022/04/14 02:56:05;;;;;;;2.97;2.70;;;;;;;15.39;64.74;101409.97;5239083;28;20126;-80
2022/04/14 02:58:37;;;;;;;1.90;1.70;;;;;;;15.51;64.09;101407.78;5220697;28;20040;-80
2022/04/14 03:01:07;;;;;;;2.60;2.42;;;;;;;15.52;63.75;101376.00;5235503;28;20055;-80
2022/04/14 03:03:38;;;;;;;2.42;2.22;;;;;;;15.47;63.63;101390.31;5244044;28;20028;-80
2022/04/14 03:06:08;;;;;;;6.13;2.08;;;;;;;15.53;63.69;101376.84;5234409;28;20076;-79
2022/04/14 03:08:39;;;;;;;3.53;2.75;;;;;;;15.41;63.98;101368.44;5238272;28;20037;-79
2022/04/14 03:11:10;;;;;;;2.40;2.17;;;;;;;15.47;63.84;101387.66;5229501;28;20056;-79
2022/04/14 03:13:42;;;;;;;2.90;2.45;;;;;;;15.55;64.81;101409.41;5243026;28;20028;-79
2022/04/14 03:16:13;;;;;;;3.40;2.75;;;;;;;15.54;65.07;101415.59;5234203;28;20028;-79
2022/04/14 03:18:43;;;;;;;2.17;1.80;;;;;;;15.56;65.34;101414.63;5236812;28;20043;-79
2022/04/14 03:21:14;;;;;;;2.60;2.40;;;;;;;15.33;66.05;101410.16;5233073;28;20552;-79
2022/04/14 03:23:44;;;;;;;3.60;3.30;;;;;;;15.29;65.69;101410.34;5233792;28;20571;-79
2022/04/14 03:26:15;;;;;;;2.50;2.30;;;;;;;15.39;64.98;101415.25;5231456;28;20115;-79
2022/04/14 03:28:45;;;;;;;1.98;1.88;;;;;;;15.39;64.45;101417.91;5203615;28;20060;-79
2022/04/14 03:31:16;;;;;;;2.83;2.63;;;;;;;15.40;64.30;101408.16;5232222;28;20036;-78
2022/04/14 03:33:46;;;;;;;3.95;2.90;;;;;;;15.39;64.63;101401.16;5237777;28;20063;-79
2022/04/14 03:36:17;;;;;;;6.85;2.70;;;;;;;15.37;64.12;101393.28;5198302;28;20527;-79
2022/04/14 03:38:47;;;;;;;3.03;2.38;;;;;;;15.31;64.21;101408.50;5235621;28;20079;-79
2022/04/14 03:41:17;;;;;;;4.18;2.45;;;;;;;15.38;65.68;101420.56;5236091;28;20098;-79
2022/04/14 03:43:51;;;;;;;4.13;3.05;;;;;;;15.32;66.77;101419.03;5215623;28;20028;-79
2022/04/14 03:46:21;;;;;;;3.17;2.88;;;;;;;15.35;66.30;101415.41;5245848;28;20112;-79
2022/04/14 03:48:58;;;;;;;5.10;2.80;;;;;;;15.32;65.92;101404.94;5235648;28;20085;-79
2022/04/14 03:51:28;;;;;;;3.78;2.15;;;;;;;15.22;65.07;101404.41;5237182;28;20369;-79
2022/04/14 03:53:59;;;;;;;13.93;2.88;;;;;;;15.25;64.87;101404.28;5237103;28;20029;-79
2022/04/14 03:56:29;;;;;;;4.15;2.10;;;;;;;15.26;64.72;101404.25;5234647;28;20028;-79
2022/04/14 03:59:00;;;;;;;13.48;3.78;;;;;;;15.28;64.85;101409.47;5249497;28;20213;-79
2022/04/14 04:01:31;;;;;;;9.88;3.33;;;;;;;15.16;65.25;101420.50;5229207;28;20039;-80
2022/04/14 04:04:01;;;;;;;4.90;2.80;;;;;;;14.74;68.29;101425.44;5233012;28;20041;-79
2022/04/14 04:06:32;;;;;;;2.35;2.13;;;;;;;14.80;66.55;101421.69;5237880;28;20079;-79
2022/04/14 04:09:02;;;;;;;3.08;2.80;;;;;;;14.98;65.71;101425.50;5237372;28;20060;-80
2022/04/14 04:11:33;;;;;;;2.95;1.80;;;;;;;15.06;65.55;101435.78;5225724;28;20044;-79
2022/04/14 04:14:03;;;;;;;5.78;2.25;;;;;;;15.08;65.16;101429.53;5239976;28;20120;-79
2022/04/14 04:16:34;;;;;;;2.78;1.77;;;;;;;15.03;65.05;101436.78;5249665;28;20040;-79
2022/04/14 04:19:04;;;;;;;3.00;2.80;;;;;;;15.02;65.55;101439.47;5236907;28;20401;-80
2022/04/14 04:21:35;;;;;;;2.10;1.90;;;;;;;15.03;65.28;101444.69;5236287;28;20033;-79
2022/04/14 04:24:05;;;;;;;1.92;1.75;;;;;;;14.99;64.79;101450.13;5238362;28;20040;-79
2022/04/14 04:26:36;;;;;;;3.53;2.30;;;;;;;14.98;64.63;101438.72;5205141;28;20728;-79
2022/04/14 04:29:07;;;;;;;2.40;2.22;;;;;;;15.02;65.27;101435.03;5258578;28;20078;-80
2022/04/14 04:31:37;;;;;;;3.03;2.63;;;;;;;14.99;65.03;101429.88;5238869;28;20041;-79
2022/04/14 04:34:10;;;;;;;2.40;2.15;;;;;;;15.02;65.11;101447.41;5238168;28;20040;-79
2022/04/14 04:36:44;;;;;;;1.25;1.23;;;;;;;14.99;65.16;101456.31;5235517;28;20043;-79
2022/04/14 04:39:15;;;;;;;2.00;1.90;;;;;;;14.85;66.07;101458.53;5237903;28;20036;-79
2022/04/14 04:41:45;;;;;;;3.45;3.15;;;;;;;14.61;67.92;101456.63;5226879;28;20029;-80
2022/04/14 04:44:16;;;;;;;3.95;2.70;;;;;;;14.70;66.48;101450.19;5237757;28;20078;-79
2022/04/14 04:46:46;;;;;;;3.38;2.92;;;;;;;14.76;65.82;101451.78;5238429;28;20075;-79
2022/04/14 04:49:17;;;;;;;12.35;3.90;;;;;;;14.83;65.34;101455.94;5240495;28;20047;-80
2022/04/14 04:51:48;;;;;;;2.95;2.75;;;;;;;14.84;65.20;101457.69;5237675;28;20105;-80
2022/04/14 04:54:18;;;;;;;4.15;3.42;;;;;;;14.84;64.99;101451.50;5234468;28;20033;-80
2022/04/14 04:56:51;;;;;;;3.00;2.72;;;;;;;14.84;65.30;101456.78;5233177;28;20184;-80
2022/04/14 04:59:22;;;;;;;4.53;3.30;;;;;;;14.87;65.05;101454.06;5223903;28;20447;-80
2022/04/14 05:01:52;;;;;;;5.55;3.85;;;;;;;14.89;65.40;101449.59;5232159;28;20054;-80
2022/04/14 05:04:23;;;;;;;3.55;3.25;;;;;;;14.83;65.88;101463.88;5241897;28;20070;-80
2022/04/14 05:06:53;;;;;;;4.70;2.38;;;;;;;14.82;65.38;101469.22;5242756;28;20128;-80
2022/04/14 05:09:24;;;;;;;3.72;3.47;;;;;;;14.86;65.52;101469.06;5235077;28;20154;-80
2022/04/14 05:11:55;;;;;;;2.88;2.63;;;;;;;14.81;65.71;101457.75;5210131;28;20102;-78
2022/04/14 05:14:25;;;;;;;2.80;2.33;;;;;;;14.78;65.35;101466.66;5229076;28;20044;-78
2022/04/14 05:16:56;;;;;;;9.07;2.97;;;;;;;14.83;65.29;101473.59;5227576;28;20731;-78
2022/04/14 05:19:26;;;;;;;16.85;3.63;;;;;;;14.83;65.01;101478.88;5229320;28;20186;-78
2022/04/14 05:21:57;;;;;;;17.48;3.90;;;;;;;14.81;65.31;101478.03;5228701;28;20047;-78
2022/04/14 05:24:31;;;;;;;6.18;4.88;;;;;;;14.81;65.38;101478.91;5227169;28;20047;-78
2022/04/14 05:27:02;;;;;;;2.67;2.47;;;;;;;14.84;65.92;101473.53;5223244;28;20418;-79
2022/04/14 05:29:35;;;;;;;3.53;3.22;;;;;;;14.79;65.55;101476.31;5242442;28;20125;-78
2022/04/14 05:32:06;;;;;;;2.03;1.92;;;;;;;14.74;65.30;101482.66;5257416;28;20051;-78
2022/04/14 05:34:36;;;;;;;12.25;2.55;;;;;;;14.73;65.22;101484.44;5224721;28;20040;-80
2022/04/14 05:37:08;;;;;;;2.58;2.35;;;;;;;14.72;66.17;101474.78;5226224;28;20130;-78
2022/04/14 05:39:38;;;;;;;2.95;2.72;;;;;;;14.74;66.24;101487.94;5222103;28;20135;-78
2022/04/14 05:42:09;;;;;;;3.17;2.97;;;;;;;14.84;66.30;101493.78;5224915;28;20087;-78
2022/04/14 05:44:40;;;;;;;8.82;3.58;;;;;;;14.71;65.99;101494.19;5229759;28;20433;-78
2022/04/14 05:47:10;;;;;;;2.35;2.15;;;;;;;14.76;66.02;101492.25;5209770;28;20529;-78
2022/04/14 05:49:41;;;;;;;4.32;3.08;;;;;;;14.73;66.01;101492.38;5232285;28;20056;-78
2022/04/14 05:52:11;;;;;;;3.42;3.13;;;;;;;14.75;66.07;101489.66;5244879;28;20048;-78
2022/04/14 05:54:41;;;;;;;4.28;3.35;;;;;;;14.78;65.90;101486.94;5221253;28;20036;-78
2022/04/14 05:57:13;;;;;;;3.70;2.83;;;;;;;14.77;65.96;101494.00;5220724;28;20552;-78
2022/04/14 05:59:43;;;;;;;3.10;2.85;;;;;;;14.69;65.85;101501.28;5224490;28;20051;-78
2022/04/14 06:02:14;;;;;;;4.80;3.25;;;;;;;14.75;65.84;101492.31;5228141;28;20063;-77
2022/04/14 06:04:44;;;;;;;4.53;3.47;;;;;;;14.75;65.73;101497.59;5229365;28;20044;-77
2022/04/14 06:07:15;;;;;;;7.05;3.95;;;;;;;14.77;65.91;101501.91;5226902;28;20505;-77
2022/04/14 06:09:45;;;;;;;3.65;3.33;;;;;;;14.75;66.87;101498.44;5216491;28;20147;-77
2022/04/14 06:12:16;;;;;;;4.82;4.43;;;;;;;14.74;66.53;101504.66;5227612;28;20663;-77
2022/04/14 06:14:46;;;;;;;7.43;5.82;;;;;;;14.78;66.28;101506.28;5224979;28;20033;-77
2022/04/14 06:17:17;;;;;;;9.57;5.43;;;;;;;14.76;66.02;101510.75;5241805;28;20567;-77
2022/04/14 06:19:48;;;;;;;14.93;2.95;;;;;;;14.79;67.48;101502.72;5223653;28;20041;-77
2022/04/14 06:22:18;;;;;;;5.68;4.60;;;;;;;14.81;66.53;101497.38;5239125;28;20127;-77
2022/04/14 06:24:49;;;;;;;3.65;3.30;;;;;;;14.84;66.66;101505.22;5228361;28;20044;-76
2022/04/14 06:27:19;;;;;;;4.38;3.97;;;;;;;14.98;67.60;101507.44;5224096;28;20032;-77
2022/04/14 06:29:50;;;;;;;5.40;1.90;;;;;;;14.83;68.27;101505.28;5238077;28;20392;-77
2022/04/14 06:32:20;;;;;;;3.38;3.08;;;;;;;14.86;68.54;101511.34;5225243;28;20032;-77
2022/04/14 06:34:51;;;;;;;9.40;3.88;;;;;;;14.59;70.35;101511.25;5185515;28;20462;-77
2022/04/14 06:37:21;;;;;;;5.05;3.38;;;;;;;14.70;69.31;101521.50;5226620;28;20069;-77
2022/04/14 06:39:52;;;;;;;2.67;2.33;;;;;;;14.65;69.86;101528.69;5226130;28;20047;-77
2022/04/14 06:42:22;;;;;;;2.08;1.92;;;;;;;14.54;69.57;101533.44;5225449;28;20848;-77
2022/04/14 06:45:00;;;;;;;3.75;3.10;;;;;;;14.47;70.94;101528.34;5241753;28;20119;-77
2022/04/14 06:47:30;;;;;;;3.58;2.78;;;;;;;14.42;71.63;101535.53;5242932;28;20094;-77
2022/04/14 06:50:01;;;;;;;16.63;3.25;;;;;;;14.53;70.00;101531.69;5227091;28;20095;-77
2022/04/14 06:52:31;;;;;;;4.00;3.35;;;;;;;14.47;71.48;101538.91;5222035;28;20087;-78
2022/04/14 06:55:02;;;;;;;3.75;2.58;;;;;;;14.46;69.23;101537.19;5215130;28;20075;-77
2022/04/14 06:57:32;;;;;;;1.58;1.50;;;;;;;14.54;68.56;101533.44;5239337;28;20033;-78
2022/04/14 07:00:07;;;;;;;6.93;3.80;;;;;;;14.41;69.91;101528.53;5229134;28;20119;-77
2022/04/14 07:02:52;;;;;;;3.75;3.45;;;;;;;14.54;68.59;101533.44;5231887;28;20158;-77
2022/04/14 07:05:23;;;;;;;6.60;3.03;;;;;;;14.54;69.77;101526.41;5226737;28;20480;-77
2022/04/14 07:07:54;;;;;;;12.63;3.70;;;;;;;14.61;68.39;101534.97;5225237;28;20359;-77
2022/04/14 07:10:27;;;;;;;3.00;2.67;;;;;;;14.65;67.78;101533.97;5229619;28;20064;-75
2022/04/14 07:12:57;;;;;;;1.67;1.58;;;;;;;14.51;68.20;101533.53;5224299;28;20055;-75
2022/04/14 07:15:30;;;;;;;1.80;1.70;;;;;;;14.55;68.15;101541.31;5225175;28;20048;-76
2022/04/14 07:18:01;;;;;;;3.47;3.10;;;;;;;14.61;67.63;101545.53;5222676;28;20025;-76
2022/04/14 07:20:34;;;;;;;2.15;1.75;;;;;;;14.67;68.62;101545.38;5223811;28;20044;-76
2022/04/14 07:23:06;;;;;;;2.28;2.15;;;;;;;14.56;67.96;101542.19;5230792;28;20064;-76
2022/04/14 07:25:36;;;;;;;3.40;2.38;;;;;;;14.47;69.22;101548.59;5257838;28;20079;-75
2022/04/14 07:28:07;;;;;;;5.47;3.90;;;;;;;14.54;69.28;101549.28;5226195;28;20029;-76
2022/04/14 07:30:39;;;;;;;6.30;1.95;;;;;;;14.40;69.69;101553.22;5230019;28;20120;-76
2022/04/14 07:33:10;;;;;;;4.63;1.63;;;;;;;14.30;70.19;101546.47;5223909;28;20329;-77
2022/04/14 07:35:40;;;;;;;1.02;1.02;;;;;;;14.50;68.18;101548.50;5211520;28;20045;-77
2022/04/14 07:38:13;;;;;;;2.13;0.82;;;;;;;14.37;70.99;101552.44;5226195;28;20044;-77
2022/04/14 07:40:43;;;;;;;1.38;1.27;;;;;;;14.44;70.77;101553.97;5211186;28;20454;-77
2022/04/14 07:43:15;;;;;;;2.80;1.50;;;;;;;14.39;69.91;101551.47;5230828;28;20081;-76
2022/04/14 07:45:45;;;;;;;1.45;1.35;;;;;;;14.11;72.51;101547.00;5249874;28;20032;-77
2022/04/14 07:48:16;;;;;;;1.88;1.77;;;;;;;14.17;72.55;101554.72;5229225;28;20043;-77
2022/04/14 07:50:48;;;;;;;4.00;2.58;;;;;;;13.93;72.96;101552.78;5250689;28;20032;-77
2022/04/14 07:53:18;;;;;;;2.88;2.13;;;;;;;13.92;72.97;101562.50;5241479;28;20037;-77
2022/04/14 07:55:49;;;;;;;1.25;1.15;;;;;;;14.15;72.10;101556.56;5267755;28;20116;-77
2022/04/14 07:58:20;;;;;;;1.20;1.20;;;;;;;14.19;72.16;101564.38;5240935;28;20528;-78
2022/04/14 08:00:51;;;;;;;13.77;3.35;;;;;;;14.19;73.63;101557.34;5224730;28;20043;-76
2022/04/14 08:03:21;;;;;;;1.25;1.15;;;;;;;14.25;72.33;101558.94;5238657;28;20032;-76
2022/04/14 08:05:52;;;;;;;2.90;1.70;;;;;;;14.18;72.26;101568.81;5235910;28;20101;-77
2022/04/14 08:08:23;;;;;;;1.23;1.15;;;;;;;14.23;72.68;101558.13;5237565;28;20038;-76
2022/04/14 08:10:53;;;;;;;1.10;1.00;;;;;;;14.37;71.47;101561.22;5233121;28;20127;-77
2022/04/14 08:13:27;;;;;;;1.25;1.20;;;;;;;14.43;71.29;101565.44;5246152;28;20452;-77
2022/04/14 08:16:01;;;;;;;0.82;0.82;;;;;;;14.54;69.79;101562.47;5231989;28;20052;-77
2022/04/14 08:18:33;;;;;;;3.90;1.02;;;;;;;14.48;70.44;101566.16;5216613;28;20028;-76
2022/04/14 08:21:05;;;;;;;0.88;0.88;;;;;;;14.34;70.51;101563.94;5235188;28;20091;-77
2022/04/14 08:23:39;;;;;;;0.98;0.82;;;;;;;14.38;70.60;101562.09;5246592;28;20098;-76
2022/04/14 08:26:11;;;;;;;1.05;0.70;;;;;;;14.29;70.97;101560.56;5229044;28;20044;-76
2022/04/14 08:28:43;;;;;;;0.40;0.40;;;;;;;14.39;70.04;101567.31;5216482;28;20029;-75
2022/04/14 08:31:15;;;;;;;1.13;0.93;;;;;;;14.43;69.92;101574.22;5214709;28;20582;-76
2022/04/14 08:33:45;;;;;;;0.65;0.65;;;;;;;14.37;70.90;101569.13;5247361;28;20041;-77
2022/04/14 08:36:16;;;;;;;0.57;0.57;;;;;;;14.57;69.53;101575.59;5201995;28;20418;-77
2022/04/14 08:38:48;;;;;;;0.65;0.65;;;;;;;14.58;70.55;101569.41;5212432;28;20389;-77
2022/04/14 08:41:21;;;;;;;0.90;0.90;;;;;;;14.57;70.83;101572.97;5204623;28;20041;-77
2022/04/14 08:44:02;;;;;;;5.20;2.37;;;;;;;14.71;70.00;101573.44;5230078;28;20029;-76
2022/04/14 08:46:33;;;;;;;1.75;1.63;;;;;;;14.68;71.23;101577.94;5248671;28;20074;-76
2022/04/14 08:49:05;;;;;;;1.75;1.65;;;;;;;14.69;71.80;101574.41;5238320;28;20107;-77
2022/04/14 08:51:36;;;;;;;2.15;1.73;;;;;;;14.81;71.57;101574.00;5219713;28;20086;-77
2022/04/14 08:54:09;;;;;;;1.05;1.00;;;;;;;14.89;71.23;101576.41;5245119;28;20039;-77
2022/04/14 08:56:41;;;;;;;4.32;2.33;;;;;;;14.85;70.99;101570.38;5241166;28;20044;-77
2022/04/14 08:59:12;;;;;;;1.65;1.55;;;;;;;14.91;70.62;101575.44;5255443;28;20025;-77
2022/04/14 09:01:44;;;;;;;1.30;1.20;;;;;;;14.95;69.94;101573.56;5236411;28;20094;-76
2022/04/14 09:04:14;;;;;;;2.58;2.47;;;;;;;14.98;71.16;101565.56;5239221;28;20392;-77
2022/04/14 09:06:45;;;;;;;4.40;1.67;;;;;;;15.02;70.31;101561.03;5226670;28;20040;-77
2022/04/14 09:09:15;;;;;;;1.33;1.15;;;;;;;15.09;69.16;101566.06;5236323;28;20205;-76
2022/04/14 09:11:46;;;;;;;6.35;3.13;;;;;;;15.03;71.00;101568.06;5231768;28;20036;-76
2022/04/14 09:14:16;;;;;;;3.08;2.13;;;;;;;15.05;71.05;101567.09;5244422;28;20037;-77
2022/04/14 09:16:48;;;;;;;1.77;1.67;;;;;;;15.09;70.21;101565.22;5229613;28;20070;-77
2022/04/14 09:19:20;;;;;;;1.48;1.40;;;;;;;15.15;70.38;101566.78;5235731;28;20829;-77
2022/04/14 09:22:20;;;;;;;2.42;2.05;;;;;;;15.11;70.14;101566.03;5235919;28;20040;-77
2022/04/14 09:24:57;;;;;;;1.08;1.05;;;;;;;15.10;70.05;101559.00;5234423;28;20064;-76
2022/04/14 09:27:33;;;;;;;1.90;1.70;;;;;;;15.20;69.71;101564.84;5256684;28;20032;-77
2022/04/14 09:30:08;;;;;;;2.75;2.53;;;;;;;15.30;69.57;101563.63;5231848;28;20106;-77
2022/04/14 09:32:42;;;;;;;2.42;1.98;;;;;;;15.34;70.05;101559.97;5228518;28;20415;-77
2022/04/14 09:35:17;;;;;;;2.90;2.55;;;;;;;15.43;70.26;101557.00;5218953;28;20504;-77
2022/04/14 09:38:06;;;;;;;5.40;2.22;;;;;;;15.47;69.23;101562.19;5244631;28;20032;-78
2022/04/14 09:40:37;;;;;;;3.15;2.80;;;;;;;15.53;69.00;101556.69;5228754;28;20397;-77
2022/04/14 09:43:08;;;;;;;4.35;2.75;;;;;;;15.59;68.43;101559.13;5234336;28;20068;-76
2022/04/14 09:45:47;;;;;;;5.35;4.95;;;;;;;15.77;67.73;101560.28;5215081;28;20052;-76
2022/04/14 09:48:18;;;;;;;4.85;4.00;;;;;;;15.78;68.14;101555.84;5236532;28;20098;-78
2022/04/14 09:50:48;;;;;;;4.10;2.65;;;;;;;15.84;67.88;101555.63;5232299;28;20032;-76
2022/04/14 09:53:19;;;;;;;2.95;2.50;;;;;;;15.86;67.99;101543.22;5218340;28;20032;-77
2022/04/14 09:55:57;;;;;;;;;;;;;;;15.95;66.96;101542.91;5221788;28;20551;-77
2022/04/14 09:58:27;;;;;;;3.75;3.05;;;;;;;15.98;67.61;101544.56;5239047;28;19916;-77
2022/04/14 10:00:58;;;;;;;2.72;2.30;;;;;;;16.04;67.06;101536.38;5255732;28;20577;-77
2022/04/14 10:03:30;;;;;;;4.13;3.20;;;;;;;15.98;68.10;101537.50;5203160;28;20101;-77
2022/04/14 10:06:07;;;;;;;4.10;3.10;;;;;;;16.07;67.64;101538.94;5234153;28;20032;-77
2022/04/14 10:08:51;;;;;;;4.90;2.58;;;;;;;16.20;67.29;101531.38;5232378;28;20037;-77
2022/04/14 10:11:29;;;;;;;3.30;2.88;;;;;;;16.21;66.92;101528.69;5250524;28;20036;-78
2022/04/14 10:14:18;;;;;;;4.53;3.20;;;;;;;16.30;66.22;101529.25;5238327;28;20249;-78
2022/04/14 10:16:50;;;;;;;3.08;2.88;;;;;;;16.19;65.79;101527.91;5257925;28;20047;-77
2022/04/14 10:19:21;;;;;;;2.05;1.95;;;;;;;16.18;66.37;101526.16;5236737;28;20042;-77
2022/04/14 10:21:54;;;;;;;4.90;3.05;;;;;;;16.27;66.31;101526.72;5252104;28;20041;-77
2022/04/14 10:24:26;;;;;;;3.95;3.33;;;;;;;16.32;66.17;101525.59;5226198;28;20110;-77
2022/04/14 10:26:58;;;;;;;4.47;1.80;;;;;;;16.31;66.08;101512.44;5236733;28;20076;-77
2022/04/14 10:29:31;;;;;;;6.87;2.87;;;;;;;16.35;65.02;101514.06;5234199;28;20048;-77
2022/04/14 10:32:02;;;;;;;8.98;3.63;;;;;;;16.45;65.42;101519.84;5236800;28;20036;-78
2022/04/14 10:34:33;;;;;;;3.70;3.35;;;;;;;16.39;64.10;101512.16;5233260;28;20078;-77
2022/04/14 10:37:07;;;;;;;4.38;2.78;;;;;;;16.34;64.13;101528.22;5235906;28;20398;-77
2022/04/14 10:39:43;;;;;;;4.72;2.55;;;;;;;16.45;64.05;101514.56;5216733;28;20091;-78
2022/04/14 10:42:18;;;;;;;9.20;4.07;;;;;;;16.48;64.36;101515.28;5206578;28;20040;-77
2022/04/14 10:44:51;;;;;;;2.85;2.65;;;;;;;16.55;63.05;101515.03;5240068;28;20043;-76
2022/04/14 10:47:42;;;;;;;2.30;1.98;;;;;;;16.60;62.88;101508.66;5233315;28;20037;-77
2022/04/14 10:50:34;;;;;;;1.92;1.83;;;;;;;16.74;63.00;101497.50;5230909;28;20408;-78
2022/04/14 10:53:04;;;;;;;4.35;2.67;;;;;;;16.78;63.13;101501.72;5213663;28;20048;-78
2022/04/14 10:55:41;;;;;;;2.10;1.90;;;;;;;16.83;62.66;101501.56;5220083;28;20106;-78
2022/04/14 10:58:27;;;;;;;2.42;2.22;;;;;;;16.91;61.81;101494.16;5242548;28;20037;-78
2022/04/14 11:00:59;;;;;;;1.98;1.73;;;;;;;16.94;61.64;101494.06;5227891;28;20044;-75
2022/04/14 11:03:52;;;;;;;5.25;3.67;;;;;;;16.87;60.31;101491.69;5238929;28;20455;-75
2022/04/14 11:06:41;;;;;;;3.45;2.50;;;;;;;17.02;61.00;101496.41;5235331;28;20197;-76
2022/04/14 11:09:44;;;;;;;15.75;5.43;;;;;;;17.03;60.22;101491.97;5223861;28;20061;-76
2022/04/14 11:12:50;;;;;;;1.50;1.42;;;;;;;17.20;59.15;101488.56;5248529;28;20053;-77
2022/04/14 11:15:31;;;;;;;1.92;1.75;;;;;;;17.24;60.54;101499.00;5215897;28;20082;-78
2022/04/14 11:18:04;;;;;;;1.35;1.30;;;;;;;17.31;60.04;101484.53;5239843;28;20093;-75
2022/04/14 11:20:38;;;;;;;1.65;1.55;;;;;;;17.48;59.39;101492.69;5235083;28;20428;-76
2022/04/14 11:23:15;;;;;;;2.97;2.28;;;;;;;17.64;58.72;101501.69;5261062;28;20045;-76
2022/04/14 11:25:51;;;;;;;4.78;2.65;;;;;;;17.71;58.87;101497.00;5203479;28;20500;-76
2022/04/14 11:28:32;;;;;;;2.28;2.08;;;;;;;17.89;57.27;101493.47;5255665;28;20029;-77
2022/04/14 11:31:17;;;;;;;0.95;0.93;;;;;;;18.13;55.39;101501.31;5210523;28;20063;-76
2022/04/14 11:33:50;;;;;;;1.33;1.23;;;;;;;18.23;54.90;101499.91;5217347;28;20244;-77
2022/04/14 11:36:25;;;;;;;3.00;2.03;;;;;;;18.35;54.99;101501.13;5252719;28;20040;-76
2022/04/14 11:39:04;;;;;;;1.70;1.60;;;;;;;18.50;54.65;101502.22;5239180;28;20108;-76
2022/04/14 11:41:38;;;;;;;1.95;1.67;;;;;;;18.64;53.60;101498.88;5239708;28;20032;-76
2022/04/14 11:44:32;;;;;;;1.75;1.58;;;;;;;18.75;53.93;101495.69;5264548;28;20110;-76
2022/04/14 11:47:07;;;;;;;2.78;1.85;;;;;;;18.78;53.23;101497.34;5235716;28;20056;-76
2022/04/14 11:49:41;;;;;;;1.05;0.98;;;;;;;18.86;52.60;101506.69;5252569;28;20032;-76
2022/04/14 11:52:21;;;;;;;1.25;1.20;;;;;;;19.07;51.38;101500.38;5216930;28;20255;-77
2022/04/14 11:54:55;;;;;;;2.90;1.27;;;;;;;18.98;52.34;101507.00;5233041;28;20505;-77